Observation data for Floydada on 05/15/2018      Previous  Date  Next       Current Mesonet Observations  Soil Data  Daily Summary Page  Observations in Plain Language
KFLS 150500Z 13011KT 20/15 A2998 RMK A01 T02000147  RH  073%=      5-min Rain = 0
KFLS 150505Z 12010KT 20/15 A2998 RMK A01 T01960149  RH  076%=      5-min Rain = 0
KFLS 150510Z 12011KT 20/15 A2997 RMK A01 T01960151  RH  077%=      5-min Rain = 0
KFLS 150515Z 12011KT 19/15 A2997 RMK A01 T01940151  RH  078%=      5-min Rain = 0
KFLS 150520Z 13011KT 19/15 A2997 RMK A01 T01940152  RH  078%=      5-min Rain = 0
KFLS 150525Z 13011G18KT 20/15 A2997 RMK A01 T01950153  RH  078%=      5-min Rain = 0
KFLS 150530Z 14014KT 20/15 A2996 RMK A01 T02010154  RH  076%=      5-min Rain = 0
KFLS 150535Z 14014KT 20/15 A2996 RMK A01 T02000154  RH  077%=      5-min Rain = 0
KFLS 150540Z 14012KT 20/15 A2996 RMK A01 T01980154  RH  077%=      5-min Rain = 0
KFLS 150545Z 14012KT 20/15 A2996 RMK A01 T01990153  RH  076%=      5-min Rain = 0
KFLS 150550Z 14013KT 20/15 A2996 RMK A01 T01990152  RH  076%=      5-min Rain = 0
KFLS 150555Z 14013KT 20/15 A2996 RMK A01 T01980154  RH  077%=      5-min Rain = 0
KFLS 150600Z 15013KT 20/15 A2996 RMK A01 T01980154  RH  077%=      5-min Rain = 0
KFLS 150605Z 15012KT 20/15 A2996 RMK A01 T01990154  RH  077%=      5-min Rain = 0
KFLS 150610Z 15012KT 20/15 A2995 RMK A01 T01980153  RH  077%=      5-min Rain = 0
KFLS 150615Z 15014KT 20/15 A2995 RMK A01 T01980151  RH  076%=      5-min Rain = 0
KFLS 150620Z 15014KT 20/15 A2995 RMK A01 T01980150  RH  075%=      5-min Rain = 0
KFLS 150625Z 16013KT 20/15 A2995 RMK A01 T01960150  RH  077%=      5-min Rain = 0
KFLS 150630Z 16013KT 19/15 A2995 RMK A01 T01930150  RH  077%=      5-min Rain = 0
KFLS 150635Z 16013G18KT 19/15 A2995 RMK A01 T01930150  RH  078%=      5-min Rain = 0
KFLS 150640Z 16013KT 19/15 A2995 RMK A01 T01930151  RH  078%=      5-min Rain = 0
KFLS 150645Z 16011G16KT 19/15 A2995 RMK A01 T01920151  RH  079%=      5-min Rain = 0
KFLS 150650Z 16011KT 19/15 A2995 RMK A01 T01910151  RH  079%=      5-min Rain = 0
KFLS 150655Z 17012KT 19/15 A2996 RMK A01 T01930151  RH  078%=      5-min Rain = 0
KFLS 150700Z 17012KT 19/15 A2996 RMK A01 T01940151  RH  078%=      5-min Rain = 0
KFLS 150705Z 17012G17KT 19/15 A2996 RMK A01 T01940151  RH  078%=      5-min Rain = 0
KFLS 150710Z 17011KT 19/15 A2997 RMK A01 T01930151  RH  078%=      5-min Rain = 0
KFLS 150715Z 17010KT 19/15 A2997 RMK A01 T01920151  RH  079%=      5-min Rain = 0
KFLS 150720Z 17011KT 19/15 A2996 RMK A01 T01910151  RH  079%=      5-min Rain = 0
KFLS 150725Z 17012KT 19/15 A2996 RMK A01 T01910151  RH  079%=      5-min Rain = 0
KFLS 150730Z 17011KT 19/15 A2996 RMK A01 T01900152  RH  080%=      5-min Rain = 0
KFLS 150735Z 17010KT 19/15 A2995 RMK A01 T01870152  RH  082%=      5-min Rain = 0
KFLS 150740Z 16011KT 19/15 A2995 RMK A01 T01870152  RH  082%=      5-min Rain = 0
KFLS 150745Z 16012KT 19/15 A2995 RMK A01 T01880153  RH  082%=      5-min Rain = 0
KFLS 150750Z 16012KT 19/15 A2995 RMK A01 T01880152  RH  082%=      5-min Rain = 0
KFLS 150755Z 16011KT 19/15 A2995 RMK A01 T01860152  RH  083%=      5-min Rain = 0
KFLS 150800Z 16011KT 19/15 A2995 RMK A01 T01860152  RH  083%=      5-min Rain = 0
KFLS 150805Z 16011KT 19/15 A2995 RMK A01 T01850152  RH  083%=      5-min Rain = 0
KFLS 150810Z 16011KT 18/15 A2995 RMK A01 T01840152  RH  083%=      5-min Rain = 0
KFLS 150815Z 16010KT 18/15 A2995 RMK A01 T01830151  RH  084%=      5-min Rain = 0
KFLS 150820Z 16010KT 18/15 A2995 RMK A01 T01820151  RH  084%=      5-min Rain = 0
KFLS 150825Z 16012KT 18/15 A2994 RMK A01 T01810150  RH  084%=      5-min Rain = 0
KFLS 150830Z 16012KT 18/15 A2994 RMK A01 T01820150  RH  084%=      5-min Rain = 0
KFLS 150835Z 16012KT 18/15 A2994 RMK A01 T01810150  RH  084%=      5-min Rain = 0
KFLS 150840Z 16011KT 18/15 A2994 RMK A01 T01800149  RH  084%=      5-min Rain = 0
KFLS 150845Z 16011KT 18/15 A2994 RMK A01 T01810148  RH  083%=      5-min Rain = 0
KFLS 150850Z 16011KT 18/15 A2994 RMK A01 T01790148  RH  083%=      5-min Rain = 0
KFLS 150855Z 15011KT 18/15 A2994 RMK A01 T01770147  RH  085%=      5-min Rain = 0
KFLS 150900Z 15010KT 18/15 A2994 RMK A01 T01760147  RH  085%=      5-min Rain = 0
KFLS 150905Z 15009KT 18/15 A2995 RMK A01 T01750146  RH  085%=      5-min Rain = 0
KFLS 150910Z 15009KT 17/15 A2995 RMK A01 T01740145  RH  085%=      5-min Rain = 0
KFLS 150915Z 15008KT 17/14 A2995 RMK A01 T01740144  RH  085%=      5-min Rain = 0
KFLS 150920Z 15007KT 17/14 A2995 RMK A01 T01720144  RH  085%=      5-min Rain = 0
KFLS 150925Z 17007KT 17/14 A2995 RMK A01 T01720143  RH  085%=      5-min Rain = 0
KFLS 150930Z 17006KT 17/14 A2995 RMK A01 T01720143  RH  085%=      5-min Rain = 0
KFLS 150935Z 18007KT 17/14 A2995 RMK A01 T01720143  RH  085%=      5-min Rain = 0
KFLS 150940Z 18008KT 17/14 A2995 RMK A01 T01740144  RH  085%=      5-min Rain = 0
KFLS 150945Z 18008KT 17/15 A2995 RMK A01 T01740145  RH  085%=      5-min Rain = 0
KFLS 150950Z 18009KT 18/15 A2995 RMK A01 T01750146  RH  085%=      5-min Rain = 0
KFLS 151000Z 18010KT 18/15 A2995 RMK A01 T01760146  RH  085%=      5-min Rain = 0
KFLS 151005Z 19010KT 18/15 A2995 RMK A01 T01760146  RH  085%=      5-min Rain = 0
KFLS 151010Z 19010KT 18/15 A2995 RMK A01 T01750146  RH  085%=      5-min Rain = 0
KFLS 151015Z 19010KT 17/15 A2994 RMK A01 T01740145  RH  085%=      5-min Rain = 0
KFLS 151020Z 20010KT 17/15 A2994 RMK A01 T01720145  RH  086%=      5-min Rain = 0
KFLS 151025Z 20010KT 17/15 A2994 RMK A01 T01720145  RH  086%=      5-min Rain = 0
KFLS 151030Z 20010KT 17/15 A2994 RMK A01 T01720145  RH  086%=      5-min Rain = 0
KFLS 151035Z 20011KT 17/15 A2994 RMK A01 T01720145  RH  086%=      5-min Rain = 0
KFLS 151040Z 21011KT 17/15 A2994 RMK A01 T01740146  RH  085%=      5-min Rain = 0
KFLS 151045Z 21011KT 18/15 A2993 RMK A01 T01750148  RH  086%=      5-min Rain = 0
KFLS 151050Z 21011KT 18/15 A2994 RMK A01 T01760149  RH  086%=      5-min Rain = 0
KFLS 151055Z 21012KT 18/15 A2993 RMK A01 T01780151  RH  086%=      5-min Rain = 0
KFLS 151100Z 21013KT 18/15 A2993 RMK A01 T01800153  RH  086%=      5-min Rain = 0
KFLS 151105Z 21012G17KT 18/15 A2994 RMK A01 T01800153  RH  086%=      5-min Rain = 0
KFLS 151110Z 22012KT 18/15 A2994 RMK A01 T01780152  RH  087%=      5-min Rain = 0
KFLS 151115Z 21013KT 18/15 A2994 RMK A01 T01790154  RH  087%=      5-min Rain = 0
KFLS 151120Z 22012KT 18/16 A2994 RMK A01 T01790155  RH  087%=      5-min Rain = 0
KFLS 151125Z 21013G18KT 18/16 A2993 RMK A01 T01810156  RH  087%=      5-min Rain = 0
KFLS 151130Z 21012G17KT 18/16 A2994 RMK A01 T01810157  RH  088%=      5-min Rain = 0
KFLS 151135Z 22012KT 18/16 A2994 RMK A01 T01830158  RH  088%=      5-min Rain = 0
KFLS 151140Z 22012G17KT 18/16 A2994 RMK A01 T01840159  RH  088%=      5-min Rain = 0
KFLS 151145Z 22012KT 18/16 A2993 RMK A01 T01820159  RH  088%=      5-min Rain = 0
KFLS 151150Z 22012G17KT 18/16 A2993 RMK A01 T01830161  RH  089%=      5-min Rain = 0
KFLS 151155Z 21013G18KT 19/16 A2993 RMK A01 T01860164  RH  089%=      5-min Rain = 0
KFLS 151200Z 21013G18KT 19/17 A2993 RMK A01 T01880165  RH  088%=      5-min Rain = 0
KFLS 151205Z 22011G17KT 19/16 A2994 RMK A01 T01870164  RH  089%=      5-min Rain = 0
KFLS 151210Z 21012KT 19/16 A2994 RMK A01 T01860164  RH  089%=      5-min Rain = 0
KFLS 151215Z 22011KT 19/16 A2994 RMK A01 T01850163  RH  089%=      5-min Rain = 0
KFLS 151220Z 22010KT 18/16 A2995 RMK A01 T01840163  RH  090%=      5-min Rain = 0
KFLS 151225Z 22010KT 18/16 A2995 RMK A01 T01830163  RH  090%=      5-min Rain = 0
KFLS 151230Z 22010G15KT 18/16 A2995 RMK A01 T01830164  RH  090%=      5-min Rain = 0
KFLS 151235Z 21010KT 19/17 A2995 RMK A01 T01850165  RH  090%=      5-min Rain = 0
KFLS 151240Z 21009KT 19/17 A2996 RMK A01 T01850166  RH  090%=      5-min Rain = 0
KFLS 151245Z 21008KT 19/17 A2996 RMK A01 T01860167  RH  091%=      5-min Rain = 0
KFLS 151250Z 21008KT 19/17 A2996 RMK A01 T01860167  RH  091%=      5-min Rain = 0
KFLS 151255Z 21008KT 19/17 A2997 RMK A01 T01880169  RH  091%=      5-min Rain = 0
KFLS 151300Z 21009KT 19/17 A2997 RMK A01 T01910172  RH  091%=      5-min Rain = 0
KFLS 151305Z 21009KT 20/18 A2997 RMK A01 T01960175  RH  090%=      5-min Rain = 0
KFLS 151310Z 21011KT 20/18 A2996 RMK A01 T01990175  RH  089%=      5-min Rain = 0
KFLS 151315Z 22009KT 20/18 A2996 RMK A01 T01990176  RH  089%=      5-min Rain = 0
KFLS 151320Z 22008KT 20/18 A2996 RMK A01 T02000177  RH  088%=      5-min Rain = 0
KFLS 151325Z 23009KT 20/18 A2996 RMK A01 T02030178  RH  088%=      5-min Rain = 0
KFLS 151330Z 23009KT 20/18 A2996 RMK A01 T02030179  RH  088%=      5-min Rain = 0
KFLS 151335Z 24009KT 20/18 A2997 RMK A01 T02030178  RH  088%=      5-min Rain = 0
KFLS 151340Z 24007KT 20/18 A2998 RMK A01 T02040180  RH  088%=      5-min Rain = 0
KFLS 151345Z 01010G18KT 21/18 A3001 RMK A01 T02060181  RH  088%=      5-min Rain = 0
KFLS 151350Z 01014KT 20/18 A3002 RMK A01 T02020177  RH  088%=      5-min Rain = 0
KFLS 151355Z 00014G20KT 20/17 A3003 RMK A01 T01980174  RH  088%=      5-min Rain = 0
KFLS 151400Z 35007G12KT 21/18 A3003 RMK A01 T02050179  RH  087%=      5-min Rain = 0
KFLS 151405Z 01014KT 21/18 A3004 RMK A01 T02070177  RH  085%=      5-min Rain = 0
KFLS 151410Z 02012G18KT 20/17 A3004 RMK A01 T02010174  RH  087%=      5-min Rain = 0
KFLS 151415Z 01008G17KT 21/18 A3004 RMK A01 T02070176  RH  085%=      5-min Rain = 0
KFLS 151420Z 36010G18KT 21/17 A3004 RMK A01 T02060174  RH  084%=      5-min Rain = 0
KFLS 151425Z 00008G14KT 21/18 A3004 RMK A01 T02100176  RH  083%=      5-min Rain = 0
KFLS 151430Z 00010KT 21/17 A3005 RMK A01 T02070173  RH  083%=      5-min Rain = 0
KFLS 151435Z 01005G10KT 21/17 A3005 RMK A01 T02060170  RH  082%=      5-min Rain = 0
KFLS 151440Z 01008KT 21/17 A3005 RMK A01 T02070169  RH  081%=      5-min Rain = 0
KFLS 151445Z 01007KT 21/17 A3005 RMK A01 T02080170  RH  081%=      5-min Rain = 0
KFLS 151450Z 36002G7KT 22/17 A3004 RMK A01 T02220172  RH  075%=      5-min Rain = 0
KFLS 151455Z 03006G13KT 22/17 A3005 RMK A01 T02220167  RH  073%=      5-min Rain = 0
KFLS 151500Z 06008G13KT 22/17 A3004 RMK A01 T02180171  RH  076%=      5-min Rain = 0
KFLS 151505Z 08005KT 22/17 A3004 RMK A01 T02220169  RH  074%=      5-min Rain = 0
KFLS 151510Z 05003G8KT 23/16 A3004 RMK A01 T02300163  RH  067%=      5-min Rain = 0
KFLS 151515Z 06009G14KT 23/17 A3004 RMK A01 T02290169  RH  070%=      5-min Rain = 0
KFLS 151520Z 07009KT 22/17 A3004 RMK A01 T02240169  RH  073%=      5-min Rain = 0
KFLS 151525Z 07005KT 23/17 A3004 RMK A01 T02270168  RH  071%=      5-min Rain = 0
KFLS 151530Z 09006KT 23/17 A3003 RMK A01 T02280166  RH  070%=      5-min Rain = 0
KFLS 151535Z 05006KT 23/17 A3004 RMK A01 T02320166  RH  068%=      5-min Rain = 0
KFLS 151540Z 08005KT 23/17 A3004 RMK A01 T02340165  RH  067%=      5-min Rain = 0
KFLS 151545Z 09004KT 24/16 A3003 RMK A01 T02350163  RH  065%=      5-min Rain = 0
KFLS 151550Z 08006KT 24/17 A3004 RMK A01 T02390166  RH  065%=      5-min Rain = 0
KFLS 151555Z 10006KT 24/16 A3003 RMK A01 T02370164  RH  065%=      5-min Rain = 0
KFLS 151600Z 09005KT 24/16 A3003 RMK A01 T02390162  RH  064%=      5-min Rain = 0
KFLS 151605Z 08004KT 24/16 A3003 RMK A01 T02410160  RH  062%=      5-min Rain = 0
KFLS 151610Z 06004KT 24/16 A3004 RMK A01 T02410157  RH  061%=      5-min Rain = 0
KFLS 151615Z 16004KT 24/16 A3003 RMK A01 T02440158  RH  060%=      5-min Rain = 0
KFLS 151620Z 09005KT 25/16 A3003 RMK A01 T02450162  RH  061%=      5-min Rain = 0
KFLS 151625Z 06008KT 24/16 A3004 RMK A01 T02440159  RH  060%=      5-min Rain = 0
KFLS 151630Z 06005KT 25/15 A3003 RMK A01 T02500152  RH  056%=      5-min Rain = 0
KFLS 151635Z 03002G10KT 25/15 A3004 RMK A01 T02470152  RH  057%=      5-min Rain = 0
KFLS 151640Z 06007G12KT 25/16 A3004 RMK A01 T02500161  RH  059%=      5-min Rain = 0
KFLS 151645Z 05007KT 25/17 A3003 RMK A01 T02530165  RH  059%=      5-min Rain = 0
KFLS 151650Z 06007KT 26/17 A3004 RMK A01 T02600167  RH  058%=      5-min Rain = 0
KFLS 151655Z 08007KT 26/16 A3004 RMK A01 T02570163  RH  058%=      5-min Rain = 0
KFLS 151700Z 06007KT 26/16 A3004 RMK A01 T02590162  RH  056%=      5-min Rain = 0
KFLS 151705Z 10005G10KT 26/16 A3004 RMK A01 T02560159  RH  056%=      5-min Rain = 0
KFLS 151710Z 09006KT 26/16 A3004 RMK A01 T02620156  RH  053%=      5-min Rain = 0
KFLS 151715Z 06007KT 26/16 A3004 RMK A01 T02610157  RH  054%=      5-min Rain = 0
KFLS 151720Z 06007KT 27/16 A3004 RMK A01 T02670163  RH  054%=      5-min Rain = 0
KFLS 151725Z 04007KT 26/16 A3004 RMK A01 T02620163  RH  056%=      5-min Rain = 0
KFLS 151730Z 03008KT 27/16 A3004 RMK A01 T02650162  RH  054%=      5-min Rain = 0
KFLS 151735Z 06006KT 26/16 A3004 RMK A01 T02550160  RH  057%=      5-min Rain = 0
KFLS 151740Z 05008KT 25/16 A3005 RMK A01 T02520161  RH  058%=      5-min Rain = 0
KFLS 151745Z 07007KT 26/16 A3005 RMK A01 T02600163  RH  056%=      5-min Rain = 0
KFLS 151750Z 09008KT 27/16 A3005 RMK A01 T02650161  RH  054%=      5-min Rain = 0
KFLS 151755Z 07007KT 27/16 A3004 RMK A01 T02690159  RH  052%=      5-min Rain = 0
KFLS 151800Z 05005KT 27/15 A3004 RMK A01 T02650154  RH  051%=      5-min Rain = 0
KFLS 151805Z 04007G14KT 26/15 A3004 RMK A01 T02630151  RH  051%=      5-min Rain = 0
KFLS 151810Z 06008G13KT 27/16 A3004 RMK A01 T02710157  RH  051%=      5-min Rain = 0
KFLS 151815Z 06008G13KT 26/16 A3004 RMK A01 T02580155  RH  054%=      5-min Rain = 0
KFLS 151820Z 06009KT 27/16 A3004 RMK A01 T02660159  RH  053%=      5-min Rain = 0
KFLS 151825Z 08008G13KT 27/16 A3004 RMK A01 T02720157  RH  051%=      5-min Rain = 0
KFLS 151830Z 08009KT 27/15 A3004 RMK A01 T02690154  RH  050%=      5-min Rain = 0
KFLS 151835Z 10006G11KT 26/15 A3004 RMK A01 T02620152  RH  052%=      5-min Rain = 0
KFLS 151840Z 04005G11KT 28/15 A3004 RMK A01 T02750151  RH  048%=      5-min Rain = 0
KFLS 151845Z 07007G12KT 28/16 A3004 RMK A01 T02800155  RH  048%=      5-min Rain = 0
KFLS 151850Z 06008KT 29/16 A3004 RMK A01 T02860158  RH  047%=      5-min Rain = 0
KFLS 151855Z 06009KT 28/15 A3004 RMK A01 T02770154  RH  048%=      5-min Rain = 0
KFLS 151900Z 08008KT 27/15 A3004 RMK A01 T02740153  RH  049%=      5-min Rain = 0
KFLS 151905Z 08007G12KT 28/15 A3004 RMK A01 T02760152  RH  048%=      5-min Rain = 0
KFLS 151910Z 06010G15KT 29/16 A3003 RMK A01 T02870155  RH  046%=      5-min Rain = 0
KFLS 151915Z 06010G16KT 28/15 A3003 RMK A01 T02800152  RH  047%=      5-min Rain = 0
KFLS 151920Z 07009KT 27/15 A3003 RMK A01 T02660150  RH  050%=      5-min Rain = 0
KFLS 151925Z 08007G17KT 28/15 A3003 RMK A01 T02780154  RH  048%=      5-min Rain = 0
KFLS 151930Z 06010G15KT 28/15 A3003 RMK A01 T02840153  RH  046%=      5-min Rain = 0
KFLS 151935Z 06008KT 28/15 A3003 RMK A01 T02790152  RH  047%=      5-min Rain = 0
KFLS 151940Z 07011G19KT 28/15 A3003 RMK A01 T02800154  RH  047%=      5-min Rain = 0
KFLS 151945Z 08009KT 28/15 A3003 RMK A01 T02820152  RH  046%=      5-min Rain = 0
KFLS 151950Z 05007G14KT 28/15 A3003 RMK A01 T02820152  RH  046%=      5-min Rain = 0
KFLS 151955Z 08014KT 27/15 A3003 RMK A01 T02730152  RH  049%=      5-min Rain = 0
KFLS 152000Z 08011G18KT 27/15 A3003 RMK A01 T02650149  RH  050%=      5-min Rain = 0
KFLS 152005Z 08008G14KT 28/15 A3002 RMK A01 T02750151  RH  048%=      5-min Rain = 0
KFLS 152010Z 07012KT 28/15 A3002 RMK A01 T02830154  RH  047%=      5-min Rain = 0
KFLS 152015Z 09010G15KT 28/15 A3002 RMK A01 T02830154  RH  046%=      5-min Rain = 0
KFLS 152020Z 07009G14KT 28/15 A3002 RMK A01 T02830151  RH  045%=      5-min Rain = 0
KFLS 152025Z 06008G14KT 28/15 A3002 RMK A01 T02830147  RH  044%=      5-min Rain = 0
KFLS 152030Z 08011G17KT 29/15 A3001 RMK A01 T02880152  RH  044%=      5-min Rain = 0
KFLS 152035Z 09009G14KT 29/15 A3001 RMK A01 T02870149  RH  044%=      5-min Rain = 0
KFLS 152040Z 10007KT 29/15 A3001 RMK A01 T02860145  RH  043%=      5-min Rain = 0
KFLS 152045Z 08008G18KT 29/15 A30 RMK A01 T02860145  RH  043%=      5-min Rain = 0
KFLS 152050Z 08008G13KT 29/15 A30 RMK A01 T02860145  RH  043%=      5-min Rain = 0
KFLS 152055Z 09009KT 29/15 A30 RMK A01 T02910145  RH  042%=      5-min Rain = 0
KFLS 152100Z 08012G19KT 29/15 A30 RMK A01 T02900146  RH  042%=      5-min Rain = 0
KFLS 152105Z 08010KT 28/14 A30 RMK A01 T02810143  RH  044%=      5-min Rain = 0
KFLS 152110Z 07007KT 29/14 A2999 RMK A01 T02870141  RH  042%=      5-min Rain = 0
KFLS 152115Z 07009G19KT 29/14 A2999 RMK A01 T02900141  RH  041%=      5-min Rain = 0
KFLS 152120Z 08010G16KT 29/14 A2999 RMK A01 T02910144  RH  042%=      5-min Rain = 0
KFLS 152125Z 06012G19KT 29/14 A2998 RMK A01 T02880143  RH  042%=      5-min Rain = 0
KFLS 152130Z 06009KT 29/14 A2998 RMK A01 T02870139  RH  041%=      5-min Rain = 0
KFLS 152135Z 06007KT 29/14 A2998 RMK A01 T02900137  RH  040%=      5-min Rain = 0
KFLS 152140Z 08007G13KT 29/14 A2997 RMK A01 T02930138  RH  039%=      5-min Rain = 0
KFLS 152145Z 10010G15KT 29/14 A2997 RMK A01 T02930137  RH  039%=      5-min Rain = 0
KFLS 152150Z 08008KT 29/14 A2996 RMK A01 T02920135  RH  039%=      5-min Rain = 0
KFLS 152155Z 06009G15KT 30/14 A2996 RMK A01 T02960138  RH  039%=      5-min Rain = 0
KFLS 152200Z 05008KT 30/14 A2996 RMK A01 T02960136  RH  038%=      5-min Rain = 0
KFLS 152205Z 06007KT 29/14 A2996 RMK A01 T02920135  RH  039%=      5-min Rain = 0
KFLS 152210Z 06010KT 30/13 A2995 RMK A01 T02950134  RH  038%=      5-min Rain = 0
KFLS 152215Z 04009KT 29/14 A2995 RMK A01 T02930136  RH  039%=      5-min Rain = 0
KFLS 152220Z 09009KT 30/14 A2995 RMK A01 T02970139  RH  039%=      5-min Rain = 0
KFLS 152225Z 06008G14KT 29/13 A2995 RMK A01 T02900134  RH  039%=      5-min Rain = 0
KFLS 152230Z 08008G13KT 29/13 A2994 RMK A01 T02850133  RH  040%=      5-min Rain = 0
KFLS 152235Z 09011G16KT 28/14 A2994 RMK A01 T02810135  RH  042%=      5-min Rain = 0
KFLS 152240Z 08010G16KT 28/14 A2994 RMK A01 T02760140  RH  044%=      5-min Rain = 0
KFLS 152245Z 05010G17KT 27/14 A2994 RMK A01 T02740140  RH  045%=      5-min Rain = 0
KFLS 152250Z 07009KT 27/14 A2994 RMK A01 T02730138  RH  044%=      5-min Rain = 0
KFLS 152255Z 07008KT 27/14 A2994 RMK A01 T02730137  RH  044%=      5-min Rain = 0
KFLS 152300Z 06010G15KT 27/14 A2994 RMK A01 T02730136  RH  044%=      5-min Rain = 0
KFLS 152305Z 08011KT 27/14 A2994 RMK A01 T02700138  RH  045%=      5-min Rain = 0
KFLS 152310Z 07011KT 27/14 A2994 RMK A01 T02680138  RH  045%=      5-min Rain = 0
KFLS 152315Z 07010KT 27/14 A2994 RMK A01 T02680141  RH  047%=      5-min Rain = 0
KFLS 152320Z 07012KT 27/15 A2995 RMK A01 T02660149  RH  050%=      5-min Rain = 0
KFLS 152325Z 08010KT 27/15 A2994 RMK A01 T02650151  RH  051%=      5-min Rain = 0
KFLS 152330Z 07011KT 26/15 A2994 RMK A01 T02630153  RH  052%=      5-min Rain = 0
KFLS 152335Z 09011KT 26/15 A2994 RMK A01 T02630152  RH  052%=      5-min Rain = 0
KFLS 152340Z 09011KT 26/15 A2995 RMK A01 T02620152  RH  052%=      5-min Rain = 0
KFLS 152345Z 08009KT 26/15 A2996 RMK A01 T02610152  RH  052%=      5-min Rain = 0
KFLS 152350Z 08009KT 26/15 A2996 RMK A01 T02600152  RH  052%=      5-min Rain = 0
KFLS 152355Z 09010KT 26/15 A2996 RMK A01 T02590154  RH  053%=      5-min Rain = 0
KFLS 160000Z 11011KT 26/16 A2995 RMK A01 T02580155  RH  054%=      5-min Rain = 0
KFLS 160005Z 14017G25KT 24/15 A2995 RMK A01 T02420149  RH  057%=      5-min Rain = 0
KFLS 160010Z 14017G24KT 22/15 A2995 RMK A01 T02230150  RH  065%=      5-min Rain = 0
KFLS 160015Z 15020G28KT 22/16 A2997 RMK A01 T02150155  RH  070%=      5-min Rain = 0
KFLS 160020Z 14016KT 20/16 A2997 RMK A01 T02030163  RH  080%=      5-min Rain = 0.02
KFLS 160025Z 14016G22KT 19/17 A2997 RMK A01 T01940165  RH  085%=      5-min Rain = 0.03
KFLS 160030Z 14015KT 19/16 A2997 RMK A01 T01870160  RH  086%=      5-min Rain = 0.02
KFLS 160035Z 12015G21KT 19/15 A2996 RMK A01 T01850154  RH  084%=      5-min Rain = 0.01
KFLS 160040Z 11013KT 19/15 A2995 RMK A01 T01870152  RH  082%=      5-min Rain = 0
KFLS 160045Z 09014KT 19/15 A2994 RMK A01 T01900154  RH  081%=      5-min Rain = 0
KFLS 160050Z 09017G23KT 19/15 A2993 RMK A01 T01860149  RH  081%=      5-min Rain = 0
KFLS 160055Z 08013KT 18/15 A2993 RMK A01 T01820148  RH  082%=      5-min Rain = 0
KFLS 160100Z 07011G16KT 19/15 A2992 RMK A01 T01850147  RH  080%=      5-min Rain = 0
KFLS 160105Z 07009KT 18/15 A2993 RMK A01 T01840147  RH  081%=      5-min Rain = 0
KFLS 160110Z 07012KT 18/14 A2993 RMK A01 T01840143  RH  079%=      5-min Rain = 0
KFLS 160115Z 07012KT 18/14 A2993 RMK A01 T01800143  RH  080%=      5-min Rain = 0
KFLS 160120Z 06008KT 18/14 A2993 RMK A01 T01790144  RH  082%=      5-min Rain = 0
KFLS 160125Z 07005KT 18/15 A2995 RMK A01 T01790145  RH  082%=      5-min Rain = 0
KFLS 160130Z 06006KT 18/14 A2995 RMK A01 T01780143  RH  082%=      5-min Rain = 0
KFLS 160135Z 03009KT 18/15 A2995 RMK A01 T01790145  RH  082%=      5-min Rain = 0
KFLS 160140Z 02011KT 18/15 A2995 RMK A01 T01760149  RH  086%=      5-min Rain = 0
KFLS 160145Z 04010KT 18/15 A2995 RMK A01 T01760151  RH  087%=      5-min Rain = 0
KFLS 160150Z 03009KT 17/15 A2995 RMK A01 T01740151  RH  088%=      5-min Rain = 0
KFLS 160155Z 02011KT 17/15 A2995 RMK A01 T01740153  RH  089%=      5-min Rain = 0
KFLS 160200Z 03010KT 18/15 A2996 RMK A01 T01760151  RH  087%=      5-min Rain = 0
KFLS 160205Z 04007KT 18/15 A2996 RMK A01 T01780151  RH  086%=      5-min Rain = 0
KFLS 160210Z 03008KT 18/15 A2996 RMK A01 T01780154  RH  088%=      5-min Rain = 0
KFLS 160215Z 02009KT 18/16 A2996 RMK A01 T01780156  RH  089%=      5-min Rain = 0
KFLS 160220Z 01010KT 18/16 A2997 RMK A01 T01790157  RH  089%=      5-min Rain = 0
KFLS 160225Z 01008KT 18/16 A2997 RMK A01 T01810159  RH  089%=      5-min Rain = 0
KFLS 160230Z 31016G36KT 18/16 A3002 RMK A01 T01840156  RH  086%=      5-min Rain = 0
KFLS 160235Z 32034G52KT 20/13 A3004 RMK A01 T01960133  RH  069%=      5-min Rain = 0
KFLS 160240Z 34025G41KT 20/13 A3002 RMK A01 T01950126  RH  066%=      5-min Rain = 0
KFLS 160245Z 33025G38KT 17/13 A3004 RMK A01 T01710126  RH  076%=      5-min Rain = 0
KFLS 160250Z 32029G40KT 16/13 A3005 RMK A01 T01600132  RH  085%=      5-min Rain = 0.03
KFLS 160255Z 36034G45KT 16/13 A30 RMK A01 T01570134  RH  088%=      5-min Rain = 0.01
KFLS 160300Z 01032G41KT 16/13 A2997 RMK A01 T01560126  RH  084%=      5-min Rain = 0
KFLS 160305Z 02029G36KT 16/12 A2994 RMK A01 T01580117  RH  078%=      5-min Rain = 0
KFLS 160310Z 01026G36KT 16/12 A2996 RMK A01 T01600115  RH  076%=      5-min Rain = 0
KFLS 160315Z 02025G31KT 16/12 A2996 RMK A01 T01550117  RH  079%=      5-min Rain = 0
KFLS 160320Z 04020G27KT 16/11 A2995 RMK A01 T01600113  RH  075%=      5-min Rain = 0
KFLS 160325Z 05019G25KT 17/11 A2995 RMK A01 T01650112  RH  072%=      5-min Rain = 0
KFLS 160330Z 10014KT 17/11 A2994 RMK A01 T01680113  RH  071%=      5-min Rain = 0
KFLS 160335Z 12010G15KT 18/11 A2995 RMK A01 T01780106  RH  064%=      5-min Rain = 0
KFLS 160340Z 12010KT 18/11 A2994 RMK A01 T01790109  RH  065%=      5-min Rain = 0
KFLS 160345Z 13009KT 18/11 A2994 RMK A01 T01790112  RH  066%=      5-min Rain = 0
KFLS 160350Z 15004KT 17/12 A2994 RMK A01 T01730116  RH  070%=      5-min Rain = 0
KFLS 160355Z 16011G24KT 17/12 A2995 RMK A01 T01710117  RH  072%=      5-min Rain = 0
KFLS 160400Z 15011G16KT 16/12 A2995 RMK A01 T01580123  RH  081%=      5-min Rain = 0
KFLS 160405Z 14012KT 16/12 A2996 RMK A01 T01590122  RH  080%=      5-min Rain = 0
KFLS 160410Z 15014KT 16/12 A2997 RMK A01 T01570124  RH  082%=      5-min Rain = 0
KFLS 160415Z 16015G20KT 15/13 A2998 RMK A01 T01540127  RH  086%=      5-min Rain = 0
KFLS 160420Z 15014KT 15/13 A2999 RMK A01 T01540126  RH  085%=      5-min Rain = 0
KFLS 160425Z 14012KT 16/12 A2999 RMK A01 T01600123  RH  080%=      5-min Rain = 0
KFLS 160430Z 14010KT 16/12 A30 RMK A01 T01640122  RH  077%=      5-min Rain = 0
KFLS 160435Z 15012G18KT 17/12 A30 RMK A01 T01700123  RH  075%=      5-min Rain = 0
KFLS 160440Z 16014KT 17/13 A30 RMK A01 T01740125  RH  074%=      5-min Rain = 0
KFLS 160445Z 16012KT 17/13 A3001 RMK A01 T01720127  RH  076%=      5-min Rain = 0
KFLS 160450Z 16012KT 17/13 A3001 RMK A01 T01730127  RH  076%=      5-min Rain = 0
KFLS 160455Z 15014G19KT 17/13 A3001 RMK A01 T01730128  RH  076%=      5-min Rain = 0

Page generated in 0.0094 seconds.